Terminal Aerodrome Forecast
Issued by NWS

Home | Current Version | Previous Version | Graphics & Text | Print | Product List | Glossary On
Versions: 1 2 3 4 5 6 7 8 9 10 11 12 13 14 15 16 17 18 19 20 21 22 23 24 25 26 27 28 29 30 31 32 33
000
FTUS43 KLOT 261600 AAB
TAFORD
TAF AMD
KORD 261601Z 2616/2718 20013G19KT P6SM BKN200
     FM262200 21011KT P6SM SCT020 BKN150
     FM270000 20008KT P6SM OVC018
     FM270900 18008KT 3SM -DZRA BR OVC010
     FM271600 22014KT 5SM BR SCT009 OVC015=

USA.gov is the U.S. government's official web portal to all federal, state and local government web resources and services.